Time;durP1;ratioP1;P1;durP2;ratioP2;P2;SDS_P1;SDS_P2;PMS_P1;PMS_P2;Temp;Humidity;BMP_temperature;BMP_pressure;BME280_temperature;BME280_humidity;BME280_pressure;Samples;Min_cycle;Max_cycle;Signal;HPM_P1;HPM_P2
2022/05/19 00:00:14;;;;;;;18.50;10.93;;;;;;;16.97;100.00;101743.00;5039675;28;20051;-62
2022/05/19 00:02:40;;;;;;;15.50;11.10;;;;;;;17.06;100.00;101730.91;5051785;28;20040;-62
2022/05/19 00:05:06;;;;;;;18.55;11.40;;;;;;;17.11;100.00;101734.16;5034134;28;20373;-62
2022/05/19 00:07:31;;;;;;;14.27;10.38;;;;;;;17.14;100.00;101736.69;5045133;28;20040;-62
2022/05/19 00:09:56;;;;;;;17.20;11.18;;;;;;;17.13;100.00;101727.78;5033804;28;20405;-62
2022/05/19 00:12:22;;;;;;;15.57;10.95;;;;;;;17.13;100.00;101725.09;5053514;28;20025;-62
2022/05/19 00:14:48;;;;;;;17.90;12.02;;;;;;;17.15;100.00;101735.75;5040448;28;20361;-62
2022/05/19 00:17:14;;;;;;;15.10;10.23;;;;;;;17.19;100.00;101739.94;5038994;28;20480;-62
2022/05/19 00:19:39;;;;;;;14.60;10.52;;;;;;;17.18;100.00;101740.91;5048648;28;20076;-62
2022/05/19 00:22:08;;;;;;;18.83;12.20;;;;;;;17.15;100.00;101733.06;5049825;28;20115;-62
2022/05/19 00:24:33;;;;;;;17.02;10.95;;;;;;;17.16;100.00;101721.38;5034792;28;20029;-63
2022/05/19 00:26:59;;;;;;;15.18;10.35;;;;;;;17.13;100.00;101719.75;5018797;28;20092;-63
2022/05/19 00:29:25;;;;;;;16.63;11.52;;;;;;;17.15;100.00;101711.66;5027580;28;20078;-63
2022/05/19 00:31:51;;;;;;;16.40;10.88;;;;;;;17.18;100.00;101714.13;5032854;28;20029;-63
2022/05/19 00:34:17;;;;;;;19.00;12.88;;;;;;;17.24;100.00;101716.44;5041865;28;20036;-63
2022/05/19 00:36:42;;;;;;;17.73;11.68;;;;;;;17.24;100.00;101711.09;5024714;28;20028;-63
2022/05/19 00:39:10;;;;;;;20.25;11.88;;;;;;;17.23;100.00;101705.84;5034061;28;20041;-63
2022/05/19 00:41:40;;;;;;;18.45;13.30;;;;;;;17.23;100.00;101700.50;5032760;28;20116;-63
2022/05/19 00:44:07;;;;;;;17.55;11.38;;;;;;;17.25;100.00;101690.53;5054099;28;20060;-63
2022/05/19 00:46:53;;;;;;;21.17;13.38;;;;;;;17.27;100.00;101694.84;5039754;28;20065;-63
2022/05/19 00:49:26;;;;;;;20.88;13.20;;;;;;;17.32;100.00;101694.59;5046272;28;20028;-62
2022/05/19 00:52:00;;;;;;;21.30;14.13;;;;;;;17.40;100.00;101688.75;5038605;28;20036;-62
2022/05/19 00:54:36;;;;;;;22.95;13.82;;;;;;;17.49;100.00;101698.91;5039586;28;20028;-62
2022/05/19 00:57:09;;;;;;;18.08;13.43;;;;;;;17.52;100.00;101696.91;5040421;28;20045;-63
2022/05/19 00:59:48;;;;;;;18.98;13.52;;;;;;;17.56;100.00;101678.84;5024687;28;20025;-62
2022/05/19 01:02:17;;;;;;;19.75;14.07;;;;;;;17.60;100.00;101669.66;5038894;28;20029;-63
2022/05/19 01:04:55;;;;;;;20.02;14.05;;;;;;;17.61;100.00;101665.16;5037339;28;20082;-62
2022/05/19 01:07:27;;;;;;;18.90;13.50;;;;;;;17.61;100.00;101659.81;5032780;28;20034;-62
2022/05/19 01:09:56;;;;;;;18.40;14.02;;;;;;;17.63;100.00;101668.63;5032689;28;20990;-62
2022/05/19 01:12:22;;;;;;;22.70;14.90;;;;;;;17.63;100.00;101674.81;5032315;28;20747;-62
2022/05/19 01:14:47;;;;;;;22.33;14.80;;;;;;;17.62;100.00;101661.53;5033633;28;20024;-62
2022/05/19 01:17:13;;;;;;;19.15;14.60;;;;;;;17.62;100.00;101654.38;5033732;28;20165;-62
2022/05/19 01:19:42;;;;;;;19.48;14.23;;;;;;;17.63;100.00;101642.69;5031732;28;20056;-62
2022/05/19 01:22:19;;;;;;;21.35;13.93;;;;;;;17.60;100.00;101644.72;5032291;28;20362;-62
2022/05/19 01:25:00;;;;;;;24.00;14.20;;;;;;;17.53;100.00;101634.38;5032240;28;20033;-61
2022/05/19 01:27:27;;;;;;;21.35;15.18;;;;;;;17.53;100.00;101637.06;5036811;28;20024;-62
2022/05/19 01:29:54;;;;;;;20.23;15.43;;;;;;;17.50;100.00;101631.88;5031707;28;20036;-62
2022/05/19 01:32:28;;;;;;;20.25;15.95;;;;;;;17.53;100.00;101631.69;5032983;28;20099;-62
2022/05/19 01:34:54;;;;;;;27.50;15.90;;;;;;;17.60;100.00;101642.03;5032916;28;20104;-62
2022/05/19 01:37:20;;;;;;;20.83;16.02;;;;;;;17.67;100.00;101640.69;5033161;28;20035;-63
2022/05/19 01:40:00;;;;;;;19.67;15.15;;;;;;;17.72;100.00;101633.22;5033549;28;20030;-63
2022/05/19 01:42:58;;;;;;;21.92;14.40;;;;;;;17.75;100.00;101624.13;5035097;28;20489;-63
2022/05/19 01:46:07;;;;;;;25.92;15.40;;;;;;;17.80;100.00;101630.94;5036745;28;20025;-63
2022/05/19 01:48:47;;;;;;;20.75;16.65;;;;;;;17.83;100.00;101637.91;5034182;28;20017;-63
2022/05/19 01:51:16;;;;;;;20.00;16.10;;;;;;;17.86;100.00;101629.69;5046956;28;20053;-63
2022/05/19 01:53:45;;;;;;;20.63;15.80;;;;;;;17.89;100.00;101625.94;5050727;28;20104;-63
2022/05/19 01:56:23;;;;;;;22.20;15.68;;;;;;;17.92;100.00;101625.75;5052441;28;20090;-63
2022/05/19 01:59:17;;;;;;;21.58;16.75;;;;;;;17.97;100.00;101610.28;5033316;28;20022;-63
2022/05/19 02:01:48;;;;;;;23.85;16.48;;;;;;;17.98;100.00;101610.19;5051963;28;20029;-63
2022/05/19 02:04:22;;;;;;;22.73;17.00;;;;;;;18.00;100.00;101605.56;5036503;28;20025;-63
2022/05/19 02:06:55;;;;;;;22.85;16.13;;;;;;;18.04;100.00;101618.78;5035538;28;20108;-63
2022/05/19 02:09:36;;;;;;;21.67;15.90;;;;;;;18.02;99.69;101637.66;5037635;28;20035;-62
2022/05/19 02:12:01;;;;;;;20.47;15.67;;;;;;;17.99;99.68;101653.91;5044964;28;20029;-63
2022/05/19 02:14:32;;;;;;;24.02;17.73;;;;;;;17.95;100.00;101688.06;5040746;28;21648;-63
2022/05/19 02:17:01;;;;;;;29.88;18.75;;;;;;;17.91;100.00;101699.91;5039905;28;20036;-64
2022/05/19 02:19:32;;;;;;;31.15;19.92;;;;;;;17.67;100.00;101692.44;5044603;28;20052;-64
2022/05/19 02:21:57;;;;;;;;;;;;;;;17.49;100.00;101674.81;5039652;28;20029;-65
2022/05/19 02:24:25;;;;;;;30.95;22.05;;;;;;;17.31;100.00;101682.16;5034913;28;20932;-64
2022/05/19 02:26:51;;;;;;;32.88;24.02;;;;;;;17.23;100.00;101695.13;5043741;28;20033;-64
2022/05/19 02:29:22;;;;;;;35.17;25.55;;;;;;;17.16;100.00;101687.47;5039376;28;20040;-65
2022/05/19 02:31:48;;;;;;;;;;;;;;;17.14;100.00;101692.03;5046139;28;20071;-63
2022/05/19 02:34:14;;;;;;;36.70;27.17;;;;;;;17.11;100.00;101691.34;5034561;28;19912;-64
2022/05/19 02:36:40;;;;;;;36.53;28.35;;;;;;;17.11;100.00;101692.22;5044712;28;20029;-64
2022/05/19 02:39:07;;;;;;;40.50;29.50;;;;;;;17.13;100.00;101705.50;5042966;28;20041;-64
2022/05/19 02:41:33;;;;;;;44.35;32.20;;;;;;;17.17;100.00;101720.44;5035434;28;20037;-64
2022/05/19 02:43:59;;;;;;;46.70;32.47;;;;;;;17.19;100.00;101708.69;5029598;28;20045;-63
2022/05/19 02:46:24;;;;;;;43.47;32.08;;;;;;;17.20;100.00;101707.75;5039864;28;20122;-63
2022/05/19 02:48:49;;;;;;;50.63;35.95;;;;;;;17.24;100.00;101715.56;5016235;28;20026;-64
2022/05/19 02:51:15;;;;;;;52.42;37.08;;;;;;;17.29;100.00;101698.31;5035277;28;20060;-64
2022/05/19 02:53:40;;;;;;;44.92;33.58;;;;;;;17.32;100.00;101687.41;5036044;28;20032;-68
2022/05/19 02:56:06;;;;;;;42.45;32.08;;;;;;;17.37;100.00;101689.81;5035208;28;20087;-64
2022/05/19 02:58:31;;;;;;;47.13;32.55;;;;;;;17.42;100.00;101709.13;5033479;28;20103;-65
2022/05/19 03:00:57;;;;;;;42.53;29.88;;;;;;;17.48;100.00;101706.09;5030357;28;20078;-64
2022/05/19 03:03:22;;;;;;;33.08;25.15;;;;;;;17.48;100.00;101706.09;5031483;28;20061;-64
2022/05/19 03:05:48;;;;;;;30.38;22.63;;;;;;;17.49;100.00;101694.44;5032142;28;21847;-65
2022/05/19 03:08:14;;;;;;;31.90;22.40;;;;;;;17.50;100.00;101704.16;5031845;28;20029;-65
2022/05/19 03:10:42;;;;;;;28.75;22.38;;;;;;;17.48;100.00;101695.38;5029149;28;20443;-63
2022/05/19 03:13:15;;;;;;;26.65;20.20;;;;;;;17.47;100.00;101699.00;5041907;28;20413;-64
2022/05/19 03:15:40;;;;;;;29.85;20.70;;;;;;;17.44;100.00;101650.13;5031994;28;20033;-65
2022/05/19 03:18:06;;;;;;;27.25;19.23;;;;;;;17.38;100.00;101666.56;5037042;28;20723;-66
2022/05/19 03:20:31;;;;;;;22.27;15.13;;;;;;;17.34;100.00;101673.91;5035763;28;20029;-63
2022/05/19 03:22:56;;;;;;;18.15;13.32;;;;;;;17.31;100.00;101668.75;5042089;28;20077;-64
2022/05/19 03:25:22;;;;;;;19.48;13.27;;;;;;;17.31;100.00;101668.75;5036774;28;20091;-64
2022/05/19 03:27:47;;;;;;;17.27;13.07;;;;;;;17.31;100.00;101672.28;5037494;28;20106;-64
2022/05/19 03:30:15;;;;;;;15.82;9.65;;;;;;;17.35;100.00;101667.63;5035953;28;20116;-65
2022/05/19 03:32:41;;;;;;;13.85;10.70;;;;;;;17.36;100.00;101653.28;5041441;28;20358;-65
2022/05/19 03:35:07;;;;;;;15.65;11.18;;;;;;;17.39;100.00;101682.53;5044399;28;20032;-65
2022/05/19 03:37:32;;;;;;;14.95;11.00;;;;;;;17.43;100.00;101751.03;5046352;28;20025;-66
2022/05/19 03:39:58;;;;;;;11.65;7.45;;;;;;;17.48;100.00;101860.53;5046455;28;20403;-65
2022/05/19 03:42:23;;;;;;;15.13;9.40;;;;;;;17.50;100.00;101851.44;5012652;28;20033;-65
2022/05/19 03:44:48;;;;;;;14.75;10.50;;;;;;;17.45;100.00;101872.28;5031420;28;20029;-66
2022/05/19 03:47:14;;;;;;;23.50;15.73;;;;;;;17.41;100.00;101869.88;5034980;28;20028;-66
2022/05/19 03:49:39;;;;;;;26.70;18.63;;;;;;;17.43;100.00;101849.22;5038193;28;20029;-66
2022/05/19 03:52:05;;;;;;;25.13;17.20;;;;;;;17.40;100.00;101844.91;5031662;28;20067;-66
2022/05/19 03:54:31;;;;;;;25.50;17.67;;;;;;;17.38;100.00;101854.84;5027296;28;20493;-66
2022/05/19 03:56:56;;;;;;;23.33;17.80;;;;;;;17.34;100.00;101837.22;5043718;28;20037;-66
2022/05/19 03:59:21;;;;;;;22.98;17.77;;;;;;;17.27;100.00;101809.09;5046623;28;20119;-66
2022/05/19 04:01:47;;;;;;;24.45;18.38;;;;;;;17.24;100.00;101815.50;5038148;28;20078;-66
2022/05/19 04:04:12;;;;;;;26.67;19.83;;;;;;;17.24;100.00;101799.44;5047011;28;20547;-67
2022/05/19 04:06:38;;;;;;;22.08;17.55;;;;;;;17.25;100.00;101774.41;5014965;28;20117;-67
2022/05/19 04:09:05;;;;;;;25.38;19.13;;;;;;;17.21;100.00;101783.53;5037269;28;20052;-67
2022/05/19 04:11:32;;;;;;;27.10;20.30;;;;;;;17.24;100.00;101798.56;5054959;28;21098;-66
2022/05/19 04:13:58;;;;;;;27.45;19.92;;;;;;;17.21;100.00;101775.50;5038652;28;20040;-67
2022/05/19 04:16:23;;;;;;;26.15;21.23;;;;;;;17.17;100.00;101777.53;5034444;28;20029;-67
2022/05/19 04:18:49;;;;;;;33.10;23.05;;;;;;;17.18;100.00;101786.41;5051116;28;20098;-67
2022/05/19 04:21:14;;;;;;;29.60;23.02;;;;;;;17.18;100.00;101773.88;5044746;28;20064;-67
2022/05/19 04:23:39;;;;;;;29.15;22.65;;;;;;;17.20;100.00;101774.66;5041327;28;20036;-67
2022/05/19 04:26:08;;;;;;;32.75;26.40;;;;;;;17.24;100.00;101791.41;5046459;28;20032;-67
2022/05/19 04:28:34;;;;;;;33.70;26.77;;;;;;;17.20;100.00;101776.47;5052433;28;20033;-67
2022/05/19 04:31:00;;;;;;;34.40;27.60;;;;;;;17.17;100.00;101785.56;5046548;28;20029;-68
2022/05/19 04:33:26;;;;;;;32.95;27.20;;;;;;;17.16;100.00;101780.25;5033327;28;20048;-68
2022/05/19 04:35:51;;;;;;;39.70;30.20;;;;;;;17.15;100.00;101771.38;5036487;28;20041;-67
2022/05/19 04:38:19;;;;;;;40.15;32.13;;;;;;;17.14;100.00;101764.28;5040449;28;20489;-68
2022/05/19 04:40:49;;;;;;;39.10;29.95;;;;;;;17.16;100.00;101756.16;5050353;28;20124;-67
2022/05/19 04:43:22;;;;;;;33.97;29.50;;;;;;;17.15;100.00;101741.09;5038516;28;20044;-68
2022/05/19 04:45:49;;;;;;;44.28;31.95;;;;;;;17.11;100.00;101752.91;5040024;28;20128;-66
2022/05/19 04:48:15;;;;;;;41.65;29.63;;;;;;;17.08;100.00;101756.63;5043267;28;20039;-67
2022/05/19 04:50:40;;;;;;;42.20;33.10;;;;;;;17.06;100.00;101757.66;5051897;28;20167;-67
2022/05/19 04:53:06;;;;;;;44.35;34.67;;;;;;;17.10;100.00;101759.22;5032456;28;20048;-66
2022/05/19 04:55:31;;;;;;;43.78;34.50;;;;;;;17.17;100.00;101757.91;5048373;28;20480;-66
2022/05/19 04:57:56;;;;;;;47.60;33.97;;;;;;;17.25;100.00;101763.69;5036211;28;20029;-67
2022/05/19 05:00:22;;;;;;;44.88;35.03;;;;;;;17.29;100.00;101761.66;5054056;28;20025;-67
2022/05/19 05:02:48;;;;;;;46.47;35.83;;;;;;;17.30;100.00;101760.72;5067527;28;20468;-67
2022/05/19 05:05:13;;;;;;;40.90;33.30;;;;;;;17.35;100.00;101758.63;5053471;28;20029;-66
2022/05/19 05:07:39;;;;;;;43.55;33.28;;;;;;;17.32;100.00;101740.94;5052026;28;20505;-66
2022/05/19 05:10:05;;;;;;;42.45;33.17;;;;;;;17.28;100.00;101739.41;5046022;28;20421;-68
2022/05/19 05:12:30;;;;;;;40.55;30.65;;;;;;;17.28;100.00;101725.16;5043606;28;20032;-67
2022/05/19 05:14:56;;;;;;;47.38;35.08;;;;;;;17.28;100.00;101711.78;5036460;28;20017;-66
2022/05/19 05:17:21;;;;;;;40.28;33.17;;;;;;;17.28;100.00;101709.97;5049675;28;20033;-66
2022/05/19 05:19:48;;;;;;;50.15;34.92;;;;;;;17.32;100.00;101687.41;5052203;28;20488;-66
2022/05/19 05:22:14;;;;;;;42.97;33.42;;;;;;;17.38;100.00;101687.97;5044762;28;20049;-66
2022/05/19 05:24:40;;;;;;;47.72;35.17;;;;;;;17.42;100.00;101676.16;5040608;28;20028;-66
2022/05/19 05:27:06;;;;;;;47.95;35.28;;;;;;;17.44;100.00;101674.22;5049830;28;20037;-67
2022/05/19 05:29:32;;;;;;;44.88;35.38;;;;;;;17.44;100.00;101655.50;5033751;28;20545;-67
2022/05/19 05:31:57;;;;;;;41.58;35.63;;;;;;;17.50;100.00;101652.44;5033552;28;20025;-67
2022/05/19 05:34:23;;;;;;;41.42;35.88;;;;;;;17.56;100.00;101641.34;5042629;28;20052;-67
2022/05/19 05:36:48;;;;;;;47.72;37.08;;;;;;;17.60;100.00;101650.06;5046926;28;20162;-67
2022/05/19 05:39:14;;;;;;;45.97;37.17;;;;;;;17.68;100.00;101647.75;5047851;28;20074;-67
2022/05/19 05:41:40;;;;;;;43.40;36.00;;;;;;;17.73;100.00;101640.31;5038172;28;20397;-67
2022/05/19 05:44:06;;;;;;;42.85;34.95;;;;;;;17.82;100.00;101647.75;5036705;28;20075;-67
2022/05/19 05:46:31;;;;;;;43.80;36.40;;;;;;;17.85;100.00;101638.66;5052712;28;20064;-67
2022/05/19 05:48:56;;;;;;;44.92;36.05;;;;;;;17.87;100.00;101635.91;5051758;28;20036;-67
2022/05/19 05:51:22;;;;;;;39.80;33.90;;;;;;;17.91;100.00;101632.94;5018731;28;20025;-67
2022/05/19 05:53:47;;;;;;;37.60;32.75;;;;;;;17.92;100.00;101637.34;5052283;28;20057;-67
2022/05/19 05:56:16;;;;;;;34.20;30.15;;;;;;;17.93;100.00;101640.84;5052809;28;20435;-67
2022/05/19 05:58:43;;;;;;;32.35;27.65;;;;;;;17.91;100.00;101634.75;5051091;28;20036;-67
2022/05/19 06:01:10;;;;;;;32.13;28.13;;;;;;;17.89;100.00;101629.50;5032571;28;20117;-67
2022/05/19 06:03:36;;;;;;;33.35;29.42;;;;;;;17.89;100.00;101645.56;5052362;28;20036;-67
2022/05/19 06:06:03;;;;;;;36.67;28.08;;;;;;;17.97;100.00;101642.44;5052975;28;20400;-67
2022/05/19 06:08:28;;;;;;;33.85;27.35;;;;;;;18.05;100.00;101650.84;5051097;28;20060;-67
2022/05/19 06:10:54;;;;;;;31.98;25.63;;;;;;;18.13;100.00;101647.66;5049481;28;20060;-68
2022/05/19 06:13:20;;;;;;;30.25;26.42;;;;;;;18.20;100.00;101634.72;5036022;28;20053;-64
2022/05/19 06:15:46;;;;;;;31.60;25.20;;;;;;;18.23;100.00;101639.91;5032559;28;20033;-66
2022/05/19 06:18:12;;;;;;;27.63;24.52;;;;;;;18.26;100.00;101645.94;5046908;28;20159;-65
2022/05/19 06:20:38;;;;;;;27.88;23.35;;;;;;;18.31;100.00;101626.84;5050746;28;20484;-64
2022/05/19 06:23:04;;;;;;;25.50;22.20;;;;;;;18.35;100.00;101628.41;5051015;28;20033;-64
2022/05/19 06:25:30;;;;;;;27.08;24.10;;;;;;;18.39;100.00;101621.00;5051583;28;20057;-65
2022/05/19 06:27:56;;;;;;;29.40;23.05;;;;;;;18.43;100.00;101620.69;5050548;28;20121;-65
2022/05/19 06:30:22;;;;;;;28.30;23.50;;;;;;;18.47;100.00;101616.00;5031825;28;20552;-66
2022/05/19 06:32:49;;;;;;;28.40;23.20;;;;;;;18.56;100.00;101627.94;5050029;28;20415;-67
2022/05/19 06:35:19;;;;;;;29.08;23.60;;;;;;;18.67;100.00;101639.69;5044302;28;20025;-65
2022/05/19 06:37:44;;;;;;;28.92;21.15;;;;;;;18.86;100.00;101638.44;5034883;28;20036;-65
2022/05/19 06:40:10;;;;;;;24.33;20.40;;;;;;;18.97;100.00;101641.28;5051476;28;20032;-66
2022/05/19 06:42:37;;;;;;;22.88;18.13;;;;;;;19.04;100.00;101632.81;5033993;28;20052;-66
2022/05/19 06:45:04;;;;;;;21.67;18.25;;;;;;;19.23;100.00;101646.69;5047471;28;20496;-65
2022/05/19 06:47:29;;;;;;;21.52;18.33;;;;;;;19.32;100.00;101640.72;5051025;28;20149;-66
2022/05/19 06:49:55;;;;;;;19.88;16.85;;;;;;;19.40;100.00;101639.28;5017666;28;20497;-66
2022/05/19 06:52:31;;;;;;;20.90;18.27;;;;;;;19.60;100.00;101659.41;5031726;28;20026;-66
2022/05/19 06:54:59;;;;;;;20.63;16.67;;;;;;;19.66;100.00;101667.03;5039971;28;20025;-66
2022/05/19 06:57:26;;;;;;;17.65;15.70;;;;;;;19.64;100.00;101674.34;5038379;28;20044;-67
2022/05/19 06:59:52;;;;;;;17.55;14.63;;;;;;;19.69;100.00;101668.66;5048327;28;20071;-66
2022/05/19 07:02:19;;;;;;;18.60;13.48;;;;;;;19.69;100.00;101674.88;5051452;28;20172;-67
2022/05/19 07:04:45;;;;;;;16.15;13.82;;;;;;;19.98;100.00;101667.44;5051127;28;20082;-67
2022/05/19 07:07:11;;;;;;;18.98;13.35;;;;;;;20.05;100.00;101658.97;5048039;28;20032;-67
2022/05/19 07:09:37;;;;;;;15.73;11.30;;;;;;;20.23;100.00;101662.13;5037105;28;20028;-66
2022/05/19 07:12:04;;;;;;;13.82;11.57;;;;;;;20.32;100.00;101657.91;5051537;28;20029;-65
2022/05/19 07:14:30;;;;;;;11.40;9.90;;;;;;;20.37;100.00;101656.63;5044309;28;20021;-65
2022/05/19 07:16:55;;;;;;;13.07;9.90;;;;;;;20.35;100.00;101652.34;5047300;28;20104;-65
2022/05/19 07:22:06;;;;;;;11.13;9.20;;;;;;;20.49;100.00;101649.47;5031483;28;20044;-65
2022/05/19 07:24:32;;;;;;;12.63;8.80;;;;;;;20.59;100.00;101653.19;5048579;28;20562;-65
2022/05/19 07:26:58;;;;;;;13.00;9.55;;;;;;;20.70;100.00;101652.41;5050122;28;20113;-66
2022/05/19 07:29:25;;;;;;;17.05;9.68;;;;;;;20.84;100.00;101658.59;5043615;28;20504;-67
2022/05/19 07:31:52;;;;;;;16.08;9.00;;;;;;;20.94;100.00;101662.31;5051599;28;20087;-67
2022/05/19 07:34:20;;;;;;;13.68;8.38;;;;;;;21.01;100.00;101671.66;5050858;28;20464;-66
2022/05/19 07:36:46;;;;;;;12.75;8.05;;;;;;;21.07;100.00;101676.53;5060367;28;20035;-67
2022/05/19 07:39:12;;;;;;;14.73;8.48;;;;;;;21.17;100.00;101683.94;5046678;28;20124;-67
2022/05/19 07:41:38;;;;;;;9.95;7.95;;;;;;;21.03;100.00;101696.59;5038406;28;20121;-65
2022/05/19 07:44:05;;;;;;;9.95;7.40;;;;;;;20.84;100.00;101698.97;5061303;28;20408;-66
2022/05/19 07:46:30;;;;;;;7.75;6.72;;;;;;;20.78;100.00;101708.34;5052923;28;20028;-67
2022/05/19 07:48:57;;;;;;;12.98;8.35;;;;;;;20.71;100.00;101707.97;5063534;28;20032;-66
2022/05/19 07:51:25;;;;;;;11.85;8.50;;;;;;;20.72;100.00;101708.84;5066242;28;20472;-66
2022/05/19 07:53:51;;;;;;;11.93;7.97;;;;;;;20.82;100.00;101704.50;5056075;28;20079;-66
2022/05/19 07:56:16;;;;;;;16.15;8.40;;;;;;;21.02;100.00;101694.88;5054394;28;20029;-66
2022/05/19 07:58:41;;;;;;;9.18;7.07;;;;;;;21.21;100.00;101677.34;5065946;28;20059;-66
2022/05/19 08:01:07;;;;;;;12.00;7.95;;;;;;;21.41;100.00;101679.34;5062224;28;20549;-65
2022/05/19 08:03:33;;;;;;;8.90;7.78;;;;;;;21.49;100.00;101683.28;5058085;28;20047;-65
2022/05/19 08:05:58;;;;;;;10.40;7.43;;;;;;;21.51;100.00;101684.00;5054646;28;20043;-65
2022/05/19 08:08:23;;;;;;;9.55;7.97;;;;;;;21.55;100.00;101685.53;5053611;28;20052;-65
2022/05/19 08:10:49;;;;;;;11.05;8.43;;;;;;;21.43;100.00;101680.09;5053118;28;20400;-65
2022/05/19 08:15:59;;;;;;;14.02;8.63;;;;;;;21.80;100.00;101680.91;5053621;28;20120;-65
2022/05/19 08:18:25;;;;;;;11.00;8.30;;;;;;;21.95;100.00;101676.13;5046507;28;20080;-66
2022/05/19 08:20:54;;;;;;;10.30;7.68;;;;;;;22.15;100.00;101678.09;5037420;28;20476;-66
2022/05/19 08:23:24;;;;;;;11.43;8.32;;;;;;;22.22;97.25;101683.84;5053726;28;20029;-65
2022/05/19 08:25:50;;;;;;;11.77;8.20;;;;;;;22.28;97.35;101688.72;5054027;28;20021;-65
2022/05/19 08:28:18;;;;;;;11.27;8.63;;;;;;;22.37;95.18;101690.69;5044885;28;20610;-65
2022/05/19 08:30:45;;;;;;;10.60;8.70;;;;;;;22.54;96.64;101696.56;5034370;28;20026;-65
2022/05/19 08:33:11;;;;;;;11.63;8.00;;;;;;;22.49;95.16;101678.03;5040635;28;20438;-66
2022/05/19 08:35:36;;;;;;;10.13;8.02;;;;;;;22.70;94.36;101670.00;5053939;28;20025;-65
2022/05/19 08:38:02;;;;;;;10.80;7.32;;;;;;;22.83;93.43;101664.44;5035983;28;20464;-65
2022/05/19 08:40:28;;;;;;;13.48;8.13;;;;;;;23.00;91.27;101673.81;5046009;28;20041;-65
2022/05/19 08:42:58;;;;;;;13.07;8.13;;;;;;;24.06;88.00;101662.94;5053005;28;20049;-66
2022/05/19 08:45:39;;;;;;;10.00;8.00;;;;;;;25.36;79.83;101678.22;5053270;28;20035;-66
2022/05/19 08:48:11;;;;;;;10.50;6.68;;;;;;;26.85;74.61;101666.50;5052361;28;20494;-65
2022/05/19 08:50:46;;;;;;;10.32;6.50;;;;;;;27.74;69.75;101661.91;5053717;28;20104;-65
2022/05/19 08:53:12;;;;;;;12.20;7.20;;;;;;;28.07;66.74;101664.78;5052722;28;20131;-65
2022/05/19 08:55:45;;;;;;;10.02;7.18;;;;;;;28.98;63.38;101652.22;5050081;28;20032;-66
2022/05/19 08:58:39;;;;;;;10.20;6.60;;;;;;;28.84;62.75;101648.28;5043257;28;20055;-64
2022/05/19 09:01:14;;;;;;;10.00;6.60;;;;;;;28.55;64.25;101654.19;5042320;28;20582;-65
2022/05/19 09:04:03;;;;;;;12.52;6.25;;;;;;;27.84;66.05;101667.22;5034203;28;20048;-65
2022/05/19 09:07:56;;;;;;;11.50;7.50;;;;;;;27.36;65.72;101672.19;5049362;28;20123;-65
2022/05/19 09:09:41;;;;;;;11.18;6.57;;;;;;;28.67;62.99;101676.56;5052337;28;20030;-65
2022/05/19 09:12:09;;;;;;;18.48;6.70;;;;;;;28.96;60.49;101688.84;5051683;28;20047;-65
2022/05/19 09:14:36;;;;;;;14.25;6.50;;;;;;;28.34;61.39;101696.38;5043672;28;20174;-66
2022/05/19 09:17:08;;;;;;;10.98;6.50;;;;;;;27.78;62.35;101693.22;5050087;28;20079;-65
2022/05/19 09:19:39;;;;;;;12.43;6.50;;;;;;;27.31;65.55;101691.69;5052024;28;20035;-65
2022/05/19 09:22:11;;;;;;;9.57;5.40;;;;;;;26.99;64.03;101682.25;5052426;28;20033;-67
2022/05/19 09:24:38;;;;;;;10.65;5.47;;;;;;;26.93;65.90;101691.91;5052848;28;20021;-65
2022/05/19 09:27:05;;;;;;;10.07;6.00;;;;;;;26.46;67.58;101687.50;5046356;28;20033;-66
2022/05/19 09:29:45;;;;;;;15.18;6.18;;;;;;;26.10;69.10;101682.00;5047521;28;20603;-66
2022/05/19 09:32:13;;;;;;;11.18;5.25;;;;;;;25.93;69.29;101685.47;5053110;28;20025;-66
2022/05/19 09:34:43;;;;;;;10.35;5.43;;;;;;;26.31;71.18;101672.72;5046866;28;20389;-65
2022/05/19 09:37:29;;;;;;;13.68;5.90;;;;;;;27.25;69.31;101670.56;5053098;28;20108;-65
2022/05/19 09:40:27;;;;;;;13.68;4.68;;;;;;;28.35;58.96;101665.41;5052124;28;20041;-65
2022/05/19 09:42:55;;;;;;;8.30;4.20;;;;;;;29.02;56.11;101658.19;5051576;28;20496;-65
2022/05/19 09:45:23;;;;;;;8.82;4.30;;;;;;;28.52;53.58;101666.28;5048232;28;20151;-65
2022/05/19 09:47:57;;;;;;;8.52;5.70;;;;;;;28.64;54.85;101668.69;5051420;28;20021;-65
2022/05/19 09:50:29;;;;;;;10.07;4.90;;;;;;;29.02;54.60;101659.03;5052571;28;20557;-65
2022/05/19 09:53:04;;;;;;;8.25;4.35;;;;;;;29.50;54.55;101642.78;5042420;28;20025;-65
2022/05/19 09:55:30;;;;;;;10.88;5.05;;;;;;;30.15;51.33;101640.00;5050362;28;20460;-65
2022/05/19 09:57:59;;;;;;;14.55;5.05;;;;;;;29.66;51.86;101633.69;5045964;28;20045;-65
2022/05/19 10:00:44;;;;;;;18.30;4.95;;;;;;;28.71;52.51;101642.47;5039786;28;20024;-65
2022/05/19 10:03:18;;;;;;;11.80;4.22;;;;;;;28.28;54.06;101656.19;5052176;28;20139;-65
2022/05/19 10:05:45;;;;;;;9.13;4.20;;;;;;;27.68;57.27;101657.09;5052219;28;20029;-65
2022/05/19 10:08:41;;;;;;;8.85;4.50;;;;;;;27.21;59.23;101642.84;5050667;28;20468;-65
2022/05/19 10:11:07;;;;;;;8.05;4.20;;;;;;;27.18;57.22;101645.88;5048334;28;20033;-65
2022/05/19 10:14:06;;;;;;;12.55;4.53;;;;;;;27.26;56.98;101647.81;5052600;28;20424;-65
2022/05/19 10:17:26;;;;;;;4.85;3.50;;;;;;;27.05;53.48;101648.19;5045994;28;20036;-65
2022/05/19 10:19:57;;;;;;;7.33;3.30;;;;;;;26.85;55.15;101647.50;5030470;28;20029;-64
2022/05/19 10:22:41;;;;;;;10.90;3.53;;;;;;;26.78;59.26;101658.13;5050908;28;20283;-64
2022/05/19 10:25:44;;;;;;;6.20;3.70;;;;;;;26.57;57.57;101661.97;5050071;28;20067;-65
2022/05/19 10:31:12;;;;;;;6.45;3.90;;;;;;;26.07;58.81;101676.84;5050583;28;20047;-64
2022/05/19 10:34:09;;;;;;;8.68;4.57;;;;;;;25.52;60.59;101674.88;5049630;28;20048;-65
2022/05/19 10:36:53;;;;;;;8.13;4.63;;;;;;;24.93;64.43;101674.09;5049556;28;20033;-65
2022/05/19 10:39:45;;;;;;;8.13;5.03;;;;;;;24.49;66.15;101686.13;5045271;28;20022;-65
2022/05/19 10:42:15;;;;;;;;;;;;;;;24.12;68.59;101702.13;5040986;28;20033;-65
2022/05/19 10:45:08;;;;;;;;;;;;;;;23.84;68.39;101705.41;5045797;28;20019;-65
2022/05/19 10:47:51;;;;;;;11.40;4.88;;;;;;;23.46;71.61;101704.19;5054895;28;19939;-64
2022/05/19 10:50:30;;;;;;;9.23;4.65;;;;;;;23.23;73.95;101712.41;5045950;28;20074;-64
2022/05/19 10:53:13;;;;;;;8.25;5.80;;;;;;;22.97;78.33;101735.31;5048525;28;20259;-64
2022/05/19 10:56:06;;;;;;;15.93;7.63;;;;;;;22.73;85.02;101763.41;5035306;28;20117;-65
2022/05/19 10:59:01;;;;;;;24.05;10.40;;;;;;;21.87;94.60;101787.31;5058354;28;20028;-66
2022/05/19 11:01:48;;;;;;;24.90;14.40;;;;;;;20.37;100.00;101814.47;5037357;28;20041;-65
2022/05/19 11:04:59;;;;;;;23.58;14.55;;;;;;;19.75;100.00;101816.03;5041215;28;20129;-68
2022/05/19 11:07:44;;;;;;;20.42;15.13;;;;;;;19.35;100.00;101826.75;5033816;28;20032;-68
2022/05/19 11:10:19;;;;;;;19.75;14.82;;;;;;;19.10;100.00;101817.63;5045595;28;20178;-69
2022/05/19 11:13:22;;;;;;;24.02;17.27;;;;;;;18.98;100.00;101817.47;5048570;28;20543;-67
2022/05/19 11:16:01;;;;;;;23.25;18.15;;;;;;;18.92;100.00;101836.66;5045004;28;20025;-67
2022/05/19 11:18:33;;;;;;;33.30;19.40;;;;;;;18.96;100.00;101830.16;5037945;28;20032;-68
2022/05/19 11:21:13;;;;;;;29.50;20.48;;;;;;;18.96;100.00;101845.38;5045983;28;20033;-68
2022/05/19 11:23:47;;;;;;;24.70;19.08;;;;;;;18.90;100.00;101835.03;5050766;28;20061;-68
2022/05/19 11:26:31;;;;;;;22.73;17.52;;;;;;;18.74;100.00;101849.41;5030112;28;20484;-68
2022/05/19 11:29:10;;;;;;;20.27;14.30;;;;;;;18.57;100.00;101834.38;5056285;28;20055;-68